Byers, Texas
Current Conditions -  °F | °C
As of 4:52 AM on Thursday 23 Oct 2014 (Local Time) from KSPS Reporting Station
Overcast Overcast  
Wind Chill: 18°   Ceiling: 7000
Heat Index: 18°   Visibility: 8mi
Dew Point: 16°   Wind: 6mph
Humidity: 87%   Direction: 150°SSE
Pressure: 30.08"   Gusts: NA
Location:  34.07°N, 98.19°W
Report Text: KSPS 230952Z 15005KT 8SM OVC070 18/16 A3008 RMK AO2 SLP178 T01780156
Loading
Personal Weather Stations






























Interactive Weather Map
Tropical Storm Tracking
New forecast layout! Learn more

10-Day Weather Forecast

Advertisements
Track Severe Weather on mobile